Terminal Aerodrome Forecast
Issued by NWS Cleveland, OH

Home | Current Version | Previous Version | Graphics & Text | Print | Product List | Glossary On
Versions: 1 2 3 4 5 6 7 8 9 10 11 12 13 14 15 16 17 18 19 20
563
FTUS41 KCLE 171138
TAFTOL
TAF
KTOL 171138Z 1712/1812 17004KT P6SM SCT035 BKN250
     FM171500 20008KT P6SM OVC200
     FM172100 22006KT P6SM OVC100
     FM180100 24010KT P6SM OVC035
     FM180900 26006KT P6SM SCT035=

USA.gov is the U.S. government's official web portal to all federal, state and local government web resources and services.